Terminal Aerodrome Forecast
Issued by NWS

Home | Current Version | Previous Version | Text Only | Print | Product List | Glossary On
Versions: 1 2 3 4 5 6 7 8 9 10 11 12 13 14 15 16 17 18 19 20 21 22 23 24 25 26 27 28 29 30 31 32 33
000
FTUS43 KILX 010225 AAB
TAFBMI
TAF AMD
KBMI 010225Z 0102/0124 18020G25KT 6SM -RA BR VCTS OVC008CB
      TEMPO 0102/0103 2SM TSRA BR SCT004 SCT008 OVC015CB
     FM010400 15017G21KT P6SM VCSH SCT005 OVC012
     FM010700 20015G21KT 6SM BR BKN010 OVC035
     FM011300 22022G32KT P6SM VCSH OVC013=

USA.gov is the U.S. government's official web portal to all federal, state and local government web resources and services.